sensor_id;sensor_type;location;lat;lon;timestamp;pressure;altitude;pressure_sealevel;temperature;humidity
62800;BME280;48842;51.046;13.796;2023-09-19T00:00:34;99573.69;;;21.45;65.94
62800;BME280;48842;51.046;13.796;2023-09-19T00:03:00;99579.88;;;21.45;65.83
62800;BME280;48842;51.046;13.796;2023-09-19T00:05:27;99590.69;;;21.42;65.64
62800;BME280;48842;51.046;13.796;2023-09-19T00:07:54;99584.47;;;21.42;65.88
62800;BME280;48842;51.046;13.796;2023-09-19T00:10:22;99596.19;;;21.39;65.47
62800;BME280;48842;51.046;13.796;2023-09-19T00:12:50;99594.44;;;21.38;65.54
62800;BME280;48842;51.046;13.796;2023-09-19T00:15:16;99594.44;;;21.38;65.68
62800;BME280;48842;51.046;13.796;2023-09-19T00:17:43;99591.03;;;21.36;65.72
62800;BME280;48842;51.046;13.796;2023-09-19T00:20:09;99588.41;;;21.35;65.79
62800;BME280;48842;51.046;13.796;2023-09-19T00:22:41;99592.97;;;21.33;65.93
62800;BME280;48842;51.046;13.796;2023-09-19T00:25:08;99596.47;;;21.33;65.93
62800;BME280;48842;51.046;13.796;2023-09-19T00:27:35;99581.63;;;21.29;65.82
62800;BME280;48842;51.046;13.796;2023-09-19T00:30:00;99589.75;;;21.26;65.95
62800;BME280;48842;51.046;13.796;2023-09-19T00:32:25;99578.41;;;21.22;66.08
62800;BME280;48842;51.046;13.796;2023-09-19T00:34:58;99577.66;;;21.20;66.27
62800;BME280;48842;51.046;13.796;2023-09-19T00:37:23;99578.41;;;21.22;66.16
62800;BME280;48842;51.046;13.796;2023-09-19T00:39:49;99574.91;;;21.22;66.13
62800;BME280;48842;51.046;13.796;2023-09-19T00:42:21;99575.06;;;21.19;66.27
62800;BME280;48842;51.046;13.796;2023-09-19T00:44:47;99568.84;;;21.18;66.22
62800;BME280;48842;51.046;13.796;2023-09-19T00:47:12;99568.16;;;21.15;66.36
62800;BME280;48842;51.046;13.796;2023-09-19T00:52:07;99570.84;;;21.15;66.37
62800;BME280;48842;51.046;13.796;2023-09-19T00:54:35;99574.44;;;21.14;66.30
62800;BME280;48842;51.046;13.796;2023-09-19T00:57:01;99565.59;;;21.13;66.16
62800;BME280;48842;51.046;13.796;2023-09-19T00:59:27;99567.38;;;21.13;66.21
62800;BME280;48842;51.046;13.796;2023-09-19T01:01:53;99562.94;;;21.13;66.33
62800;BME280;48842;51.046;13.796;2023-09-19T01:04:19;99558.44;;;21.14;66.22
62800;BME280;48842;51.046;13.796;2023-09-19T01:06:45;99562.94;;;21.13;66.10
62800;BME280;48842;51.046;13.796;2023-09-19T01:09:11;99563.78;;;21.14;66.43
62800;BME280;48842;51.046;13.796;2023-09-19T01:11:42;99556.72;;;21.13;66.18
62800;BME280;48842;51.046;13.796;2023-09-19T01:14:20;99580.78;;;21.11;66.36
62800;BME280;48842;51.046;13.796;2023-09-19T01:17:07;99584.25;;;21.13;66.40
62800;BME280;48842;51.046;13.796;2023-09-19T01:22:41;99582.41;;;21.14;66.04
62800;BME280;48842;51.046;13.796;2023-09-19T01:31:04;99589.66;;;21.12;65.87
62800;BME280;48842;51.046;13.796;2023-09-19T01:33:53;99588.75;;;21.11;66.10
62800;BME280;48842;51.046;13.796;2023-09-19T01:36:22;99593.25;;;21.10;65.66
62800;BME280;48842;51.046;13.796;2023-09-19T01:38:48;99596.84;;;21.09;65.93
62800;BME280;48842;51.046;13.796;2023-09-19T01:41:19;99594.97;;;21.12;65.86
62800;BME280;48842;51.046;13.796;2023-09-19T01:43:49;99592.31;;;21.12;65.93
62800;BME280;48842;51.046;13.796;2023-09-19T01:46:25;99590.56;;;21.10;65.71
62800;BME280;48842;51.046;13.796;2023-09-19T01:52:05;99596.84;;;21.09;65.86
62800;BME280;48842;51.046;13.796;2023-09-19T01:54:34;99584.41;;;21.10;65.83
62800;BME280;48842;51.046;13.796;2023-09-19T01:57:05;99583.50;;;21.09;65.81
62800;BME280;48842;51.046;13.796;2023-09-19T01:59:37;99588.84;;;21.09;65.94
62800;BME280;48842;51.046;13.796;2023-09-19T02:02:06;99592.47;;;21.08;65.87
62800;BME280;48842;51.046;13.796;2023-09-19T02:04:35;99603.13;;;21.08;65.87
62800;BME280;48842;51.046;13.796;2023-09-19T02:07:00;99605.00;;;21.06;65.83
62800;BME280;48842;51.046;13.796;2023-09-19T02:09:26;99602.31;;;21.06;65.76
62800;BME280;48842;51.046;13.796;2023-09-19T02:11:52;99600.66;;;21.04;66.01
62800;BME280;48842;51.046;13.796;2023-09-19T02:14:17;99605.22;;;21.02;66.07
62800;BME280;48842;51.046;13.796;2023-09-19T02:16:44;99615.03;;;21.01;66.09
62800;BME280;48842;51.046;13.796;2023-09-19T02:19:10;99607.03;;;21.01;66.15
62800;BME280;48842;51.046;13.796;2023-09-19T02:21:35;99610.56;;;21.02;66.08
62800;BME280;48842;51.046;13.796;2023-09-19T02:24:00;99606.06;;;21.02;66.15
62800;BME280;48842;51.046;13.796;2023-09-19T02:26:26;99607.88;;;21.02;65.96
62800;BME280;48842;51.046;13.796;2023-09-19T02:28:52;99613.28;;;21.00;66.21
62800;BME280;48842;51.046;13.796;2023-09-19T02:31:18;99620.44;;;21.00;66.03
62800;BME280;48842;51.046;13.796;2023-09-19T02:33:43;99621.44;;;20.97;66.37
62800;BME280;48842;51.046;13.796;2023-09-19T02:36:08;99615.25;;;20.97;66.37
62800;BME280;48842;51.046;13.796;2023-09-19T02:38:35;99618.78;;;20.97;66.26
62800;BME280;48842;51.046;13.796;2023-09-19T02:41:02;99618.88;;;20.96;66.40
62800;BME280;48842;51.046;13.796;2023-09-19T02:43:28;99625.97;;;20.95;66.48
62800;BME280;48842;51.046;13.796;2023-09-19T02:45:53;99625.13;;;20.95;66.38
62800;BME280;48842;51.046;13.796;2023-09-19T02:48:19;99636.63;;;20.95;66.38
62800;BME280;48842;51.046;13.796;2023-09-19T02:50:45;99632.25;;;20.94;65.98
62800;BME280;48842;51.046;13.796;2023-09-19T02:53:12;99629.69;;;20.92;65.99
62800;BME280;48842;51.046;13.796;2023-09-19T02:55:38;99627.09;;;20.91;66.03
62800;BME280;48842;51.046;13.796;2023-09-19T02:58:06;99628.03;;;20.90;66.16
62800;BME280;48842;51.046;13.796;2023-09-19T03:00:40;99626.28;;;20.89;66.10
62800;BME280;48842;51.046;13.796;2023-09-19T03:03:07;99626.28;;;20.89;66.25
62800;BME280;48842;51.046;13.796;2023-09-19T03:05:34;99628.94;;;20.89;66.08
62800;BME280;48842;51.046;13.796;2023-09-19T03:07:59;99640.59;;;20.86;66.20
62800;BME280;48842;51.046;13.796;2023-09-19T03:10:26;99645.09;;;20.86;66.38
62800;BME280;48842;51.046;13.796;2023-09-19T03:12:53;99650.47;;;20.84;66.37
62800;BME280;48842;51.046;13.796;2023-09-19T03:15:18;99653.16;;;20.84;66.26
62800;BME280;48842;51.046;13.796;2023-09-19T03:17:45;99649.72;;;20.82;66.22
62800;BME280;48842;51.046;13.796;2023-09-19T03:20:11;99652.50;;;20.79;66.43
62800;BME280;48842;51.046;13.796;2023-09-19T03:22:38;99662.38;;;20.77;66.16
62800;BME280;48842;51.046;13.796;2023-09-19T03:25:05;99661.53;;;20.77;66.06
62800;BME280;48842;51.046;13.796;2023-09-19T03:27:34;99670.38;;;20.77;65.69
62800;BME280;48842;51.046;13.796;2023-09-19T03:29:59;99665.88;;;20.78;65.82
62800;BME280;48842;51.046;13.796;2023-09-19T03:32:24;99667.63;;;20.79;65.47
62800;BME280;48842;51.046;13.796;2023-09-19T03:34:49;99663.16;;;20.79;65.64
62800;BME280;48842;51.046;13.796;2023-09-19T03:37:15;99672.88;;;20.80;65.77
62800;BME280;48842;51.046;13.796;2023-09-19T03:39:40;99672.03;;;20.80;65.80
62800;BME280;48842;51.046;13.796;2023-09-19T03:42:05;99669.44;;;20.78;65.73
62800;BME280;48842;51.046;13.796;2023-09-19T03:44:32;99658.94;;;20.75;65.98
62800;BME280;48842;51.046;13.796;2023-09-19T03:46:57;99670.59;;;20.72;66.20
62800;BME280;48842;51.046;13.796;2023-09-19T03:49:23;99661.81;;;20.70;66.25
62800;BME280;48842;51.046;13.796;2023-09-19T03:51:48;99667.19;;;20.69;66.22
62800;BME280;48842;51.046;13.796;2023-09-19T03:54:15;99677.78;;;20.70;65.53
62800;BME280;48842;51.046;13.796;2023-09-19T03:56:42;99669.59;;;20.75;65.56
62800;BME280;48842;51.046;13.796;2023-09-19T03:59:07;99665.03;;;20.77;65.39
62800;BME280;48842;51.046;13.796;2023-09-19T04:01:34;99676.53;;;20.78;65.40
62800;BME280;48842;51.046;13.796;2023-09-19T04:03:59;99667.69;;;20.77;65.02
62800;BME280;48842;51.046;13.796;2023-09-19T04:06:33;99677.34;;;20.80;65.03
62800;BME280;48842;51.046;13.796;2023-09-19T04:08:58;99679.03;;;20.81;65.02
62800;BME280;48842;51.046;13.796;2023-09-19T04:11:23;99674.59;;;20.81;65.30
62800;BME280;48842;51.046;13.796;2023-09-19T04:13:49;99684.38;;;20.81;65.12
62800;BME280;48842;51.046;13.796;2023-09-19T04:16:14;99680.78;;;20.82;64.97
62800;BME280;48842;51.046;13.796;2023-09-19T04:18:39;99689.66;;;20.82;64.80
62800;BME280;48842;51.046;13.796;2023-09-19T04:21:04;99700.28;;;20.82;64.79
62800;BME280;48842;51.046;13.796;2023-09-19T04:23:31;99686.09;;;20.82;64.84
62800;BME280;48842;51.046;13.796;2023-09-19T04:25:57;99694.09;;;20.82;65.02
62800;BME280;48842;51.046;13.796;2023-09-19T04:28:22;99692.34;;;20.81;64.52
62800;BME280;48842;51.046;13.796;2023-09-19T04:30:48;99687.84;;;20.83;64.14
62800;BME280;48842;51.046;13.796;2023-09-19T04:33:13;99682.34;;;20.86;63.94
62800;BME280;48842;51.046;13.796;2023-09-19T04:35:41;99684.09;;;20.87;63.71
62800;BME280;48842;51.046;13.796;2023-09-19T04:38:07;99681.19;;;20.91;63.19
62800;BME280;48842;51.046;13.796;2023-09-19T04:40:33;99687.22;;;20.95;62.93
62800;BME280;48842;51.046;13.796;2023-09-19T04:42:59;99696.00;;;20.97;62.27
62800;BME280;48842;51.046;13.796;2023-09-19T04:45:25;99703.00;;;21.00;61.94
62800;BME280;48842;51.046;13.796;2023-09-19T04:47:54;99702.03;;;21.01;61.90
62800;BME280;48842;51.046;13.796;2023-09-19T04:50:20;99707.28;;;21.02;61.52
62800;BME280;48842;51.046;13.796;2023-09-19T04:52:49;99704.63;;;21.02;61.83
62800;BME280;48842;51.046;13.796;2023-09-19T04:55:16;99702.91;;;21.01;61.39
62800;BME280;48842;51.046;13.796;2023-09-19T04:57:49;99702.91;;;21.01;61.77
62800;BME280;48842;51.046;13.796;2023-09-19T05:00:17;99710.81;;;21.03;61.94
62800;BME280;48842;51.046;13.796;2023-09-19T05:02:43;99714.34;;;21.03;61.70
62800;BME280;48842;51.046;13.796;2023-09-19T05:05:09;99728.59;;;21.02;62.06
62800;BME280;48842;51.046;13.796;2023-09-19T05:07:42;99730.41;;;21.02;62.47
62800;BME280;48842;51.046;13.796;2023-09-19T05:10:08;99733.13;;;21.00;62.87
62800;BME280;48842;51.046;13.796;2023-09-19T05:12:36;99726.16;;;20.98;62.79
62800;BME280;48842;51.046;13.796;2023-09-19T05:15:03;99741.34;;;20.96;63.12
62800;BME280;48842;51.046;13.796;2023-09-19T05:17:29;99741.34;;;20.96;63.27
62800;BME280;48842;51.046;13.796;2023-09-19T05:19:55;99750.34;;;20.93;63.47
62800;BME280;48842;51.046;13.796;2023-09-19T05:22:20;99750.44;;;20.91;63.47
62800;BME280;48842;51.046;13.796;2023-09-19T05:24:46;99750.50;;;20.90;63.40
62800;BME280;48842;51.046;13.796;2023-09-19T05:27:14;99752.28;;;20.89;63.54
62800;BME280;48842;51.046;13.796;2023-09-19T05:29:43;99748.00;;;20.87;63.55
62800;BME280;48842;51.046;13.796;2023-09-19T05:32:09;99753.31;;;20.87;63.57
62800;BME280;48842;51.046;13.796;2023-09-19T05:34:36;99746.19;;;20.87;63.61
62800;BME280;48842;51.046;13.796;2023-09-19T05:37:01;99751.50;;;20.87;63.50
62800;BME280;48842;51.046;13.796;2023-09-19T05:39:26;99754.16;;;20.87;63.56
62800;BME280;48842;51.046;13.796;2023-09-19T05:41:52;99749.69;;;20.88;62.74
62800;BME280;48842;51.046;13.796;2023-09-19T05:44:17;99752.16;;;20.92;62.66
62800;BME280;48842;51.046;13.796;2023-09-19T05:46:42;99764.38;;;20.97;62.46
62800;BME280;48842;51.046;13.796;2023-09-19T05:49:07;99756.19;;;21.01;61.74
62800;BME280;48842;51.046;13.796;2023-09-19T05:51:33;99762.13;;;21.06;61.74
62800;BME280;48842;51.046;13.796;2023-09-19T05:54:00;99772.47;;;21.13;61.40
62800;BME280;48842;51.046;13.796;2023-09-19T05:58:50;99774.84;;;21.19;60.92
62800;BME280;48842;51.046;13.796;2023-09-19T06:01:18;99779.88;;;21.25;61.01
62800;BME280;48842;51.046;13.796;2023-09-19T06:03:43;99779.72;;;21.28;60.82
62800;BME280;48842;51.046;13.796;2023-09-19T06:06:08;99777.66;;;21.33;60.57
62800;BME280;48842;51.046;13.796;2023-09-19T06:08:34;99777.38;;;21.39;60.07
62800;BME280;48842;51.046;13.796;2023-09-19T06:10:59;99777.16;;;21.44;60.45
62800;BME280;48842;51.046;13.796;2023-09-19T06:13:25;99775.25;;;21.46;59.96
62800;BME280;48842;51.046;13.796;2023-09-19T06:15:52;99780.50;;;21.48;59.81
62800;BME280;48842;51.046;13.796;2023-09-19T06:18:17;99782.13;;;21.52;59.52
62800;BME280;48842;51.046;13.796;2023-09-19T06:20:46;99791.84;;;21.53;58.88
62800;BME280;48842;51.046;13.796;2023-09-19T06:23:12;99793.59;;;21.54;58.35
62800;BME280;48842;51.046;13.796;2023-09-19T06:25:37;99803.47;;;21.50;57.96
62800;BME280;48842;51.046;13.796;2023-09-19T06:28:02;99805.28;;;21.50;58.08
62800;BME280;48842;51.046;13.796;2023-09-19T06:30:33;99809.63;;;21.52;58.10
62800;BME280;48842;51.046;13.796;2023-09-19T06:33:00;99812.94;;;21.57;57.92
62800;BME280;48842;51.046;13.796;2023-09-19T06:35:26;99807.44;;;21.60;57.93
62800;BME280;48842;51.046;13.796;2023-09-19T06:37:52;99811.94;;;21.60;57.66
62800;BME280;48842;51.046;13.796;2023-09-19T06:40:18;99812.84;;;21.59;57.60
62800;BME280;48842;51.046;13.796;2023-09-19T06:42:45;99812.09;;;21.57;57.56
62800;BME280;48842;51.046;13.796;2023-09-19T06:45:12;99821.84;;;21.56;57.38
62800;BME280;48842;51.046;13.796;2023-09-19T06:47:39;99828.00;;;21.58;57.36
62800;BME280;48842;51.046;13.796;2023-09-19T06:50:05;99834.03;;;21.62;57.56
62800;BME280;48842;51.046;13.796;2023-09-19T06:52:31;99836.53;;;21.65;57.46
62800;BME280;48842;51.046;13.796;2023-09-19T06:54:58;99846.19;;;21.68;57.19
62800;BME280;48842;51.046;13.796;2023-09-19T06:57:23;99843.53;;;21.68;57.12
62800;BME280;48842;51.046;13.796;2023-09-19T06:59:49;99852.38;;;21.68;56.91
62800;BME280;48842;51.046;13.796;2023-09-19T07:02:16;99852.38;;;21.68;57.06
62800;BME280;48842;51.046;13.796;2023-09-19T07:04:41;99861.94;;;21.72;57.08
62800;BME280;48842;51.046;13.796;2023-09-19T07:07:06;99858.97;;;21.78;57.04
62800;BME280;48842;51.046;13.796;2023-09-19T07:09:34;99857.63;;;21.87;56.91
62800;BME280;48842;51.046;13.796;2023-09-19T07:11:59;99852.69;;;21.97;56.55
62800;BME280;48842;51.046;13.796;2023-09-19T07:14:25;99858.59;;;22.04;55.75
62800;BME280;48842;51.046;13.796;2023-09-19T07:16:51;99870.88;;;22.06;55.43
62800;BME280;48842;51.046;13.796;2023-09-19T07:19:17;99868.94;;;22.10;55.47
62800;BME280;48842;51.046;13.796;2023-09-19T07:21:42;99872.22;;;22.15;55.45
62800;BME280;48842;51.046;13.796;2023-09-19T07:24:08;99882.75;;;22.18;55.12
62800;BME280;48842;51.046;13.796;2023-09-19T07:26:33;99897.88;;;22.18;54.54
62800;BME280;48842;51.046;13.796;2023-09-19T07:28:59;99891.63;;;22.19;53.56
62800;BME280;48842;51.046;13.796;2023-09-19T07:31:24;99885.19;;;22.23;53.05
62800;BME280;48842;51.046;13.796;2023-09-19T07:33:50;99890.38;;;22.26;52.04
62800;BME280;48842;51.046;13.796;2023-09-19T07:36:15;99889.44;;;22.27;51.81
62800;BME280;48842;51.046;13.796;2023-09-19T07:38:41;99888.63;;;22.25;50.66
62800;BME280;48842;51.046;13.796;2023-09-19T07:41:07;99902.13;;;22.22;50.58
62800;BME280;48842;51.046;13.796;2023-09-19T07:43:34;99904.81;;;22.22;49.98
62800;BME280;48842;51.046;13.796;2023-09-19T07:46:03;99909.38;;;22.20;49.59
62800;BME280;48842;51.046;13.796;2023-09-19T07:48:28;99914.53;;;22.23;49.67
62800;BME280;48842;51.046;13.796;2023-09-19T07:50:54;99913.56;;;22.24;49.25
62800;BME280;48842;51.046;13.796;2023-09-19T07:53:20;99903.69;;;22.26;48.25
62800;BME280;48842;51.046;13.796;2023-09-19T07:55:45;99906.38;;;22.26;48.55
62800;BME280;48842;51.046;13.796;2023-09-19T07:58:13;99914.13;;;22.30;48.76
62800;BME280;48842;51.046;13.796;2023-09-19T08:00:38;99921.06;;;22.35;48.98
62800;BME280;48842;51.046;13.796;2023-09-19T08:03:04;99908.50;;;22.37;49.16
62800;BME280;48842;51.046;13.796;2023-09-19T08:05:31;99911.09;;;22.38;48.54
62800;BME280;48842;51.046;13.796;2023-09-19T08:07:58;99912.81;;;22.39;48.68
62800;BME280;48842;51.046;13.796;2023-09-19T08:10:24;99903.81;;;22.42;48.84
62800;BME280;48842;51.046;13.796;2023-09-19T08:12:52;99915.16;;;22.45;48.75
62800;BME280;48842;51.046;13.796;2023-09-19T08:15:23;99921.13;;;22.51;48.41
62800;BME280;48842;51.046;13.796;2023-09-19T08:17:48;99918.63;;;22.47;46.89
62800;BME280;48842;51.046;13.796;2023-09-19T08:20:14;99927.59;;;22.46;46.87
62800;BME280;48842;51.046;13.796;2023-09-19T08:22:50;99930.34;;;22.45;47.02
62800;BME280;48842;51.046;13.796;2023-09-19T08:25:17;99923.25;;;22.44;46.83
62800;BME280;48842;51.046;13.796;2023-09-19T08:27:44;99926.81;;;22.44;46.75
62800;BME280;48842;51.046;13.796;2023-09-19T08:30:17;99924.13;;;22.44;47.30
62800;BME280;48842;51.046;13.796;2023-09-19T08:32:58;99934.66;;;22.47;47.09
62800;BME280;48842;51.046;13.796;2023-09-19T08:35:24;99923.72;;;22.52;47.18
62800;BME280;48842;51.046;13.796;2023-09-19T08:37:49;99943.91;;;22.58;46.93
62800;BME280;48842;51.046;13.796;2023-09-19T08:40:15;99936.59;;;22.61;45.99
62800;BME280;48842;51.046;13.796;2023-09-19T08:42:56;99941.94;;;22.61;45.93
62800;BME280;48842;51.046;13.796;2023-09-19T08:45:22;99946.25;;;22.64;45.40
62800;BME280;48842;51.046;13.796;2023-09-19T08:48:23;99936.16;;;22.69;45.52
62800;BME280;48842;51.046;13.796;2023-09-19T08:50:59;99940.31;;;22.75;45.60
62800;BME280;48842;51.046;13.796;2023-09-19T08:53:44;99937.50;;;22.78;45.74
62800;BME280;48842;51.046;13.796;2023-09-19T08:56:17;99943.53;;;22.81;45.58
62800;BME280;48842;51.046;13.796;2023-09-19T08:58:55;99952.41;;;22.82;45.59
62800;BME280;48842;51.046;13.796;2023-09-19T09:01:23;99946.22;;;22.81;45.36
62800;BME280;48842;51.046;13.796;2023-09-19T09:03:53;99945.03;;;22.87;45.69
62800;BME280;48842;51.046;13.796;2023-09-19T09:06:20;99942.88;;;22.94;45.32
62800;BME280;48842;51.046;13.796;2023-09-19T09:08:46;99946.34;;;22.96;45.17
62800;BME280;48842;51.046;13.796;2023-09-19T09:11:13;99946.16;;;22.99;45.17
62800;BME280;48842;51.046;13.796;2023-09-19T09:13:40;99945.06;;;23.03;45.27
62800;BME280;48842;51.046;13.796;2023-09-19T09:16:07;99948.34;;;23.08;45.34
62800;BME280;48842;51.046;13.796;2023-09-19T09:18:33;99950.63;;;23.16;44.46
62800;BME280;48842;51.046;13.796;2023-09-19T09:20:58;99961.34;;;23.16;44.02
62800;BME280;48842;51.046;13.796;2023-09-19T09:23:23;99947.00;;;23.17;43.80
62800;BME280;48842;51.046;13.796;2023-09-19T09:25:52;99940.28;;;23.26;43.88
62800;BME280;48842;51.046;13.796;2023-09-19T09:28:21;99940.47;;;23.39;43.61
62800;BME280;48842;51.046;13.796;2023-09-19T09:30:46;99936.31;;;23.49;43.22
62800;BME280;48842;51.046;13.796;2023-09-19T09:33:13;99937.78;;;23.55;43.13
62800;BME280;48842;51.046;13.796;2023-09-19T09:38:18;99949.34;;;23.71;43.01
62800;BME280;48842;51.046;13.796;2023-09-19T09:40:51;99955.41;;;23.75;42.91
62800;BME280;48842;51.046;13.796;2023-09-19T09:43:31;99962.53;;;23.74;42.84
62800;BME280;48842;51.046;13.796;2023-09-19T09:46:20;99955.47;;;23.73;42.99
62800;BME280;48842;51.046;13.796;2023-09-19T09:48:45;99961.25;;;23.65;42.55
62800;BME280;48842;51.046;13.796;2023-09-19T09:51:29;99971.00;;;23.50;42.72
62800;BME280;48842;51.046;13.796;2023-09-19T09:54:10;99971.53;;;23.41;42.85
62800;BME280;48842;51.046;13.796;2023-09-19T09:56:52;99960.13;;;23.38;42.68
62800;BME280;48842;51.046;13.796;2023-09-19T09:59:18;99963.75;;;23.37;42.50
62800;BME280;48842;51.046;13.796;2023-09-19T10:01:47;99964.63;;;23.37;42.90
62800;BME280;48842;51.046;13.796;2023-09-19T10:04:27;99960.91;;;23.40;42.86
62800;BME280;48842;51.046;13.796;2023-09-19T10:06:54;99967.91;;;23.42;42.81
62800;BME280;48842;51.046;13.796;2023-09-19T10:09:20;99970.72;;;23.39;42.92
62800;BME280;48842;51.046;13.796;2023-09-19T10:11:47;99961.84;;;23.39;43.03
62800;BME280;48842;51.046;13.796;2023-09-19T10:14:20;99953.56;;;23.43;42.84
62800;BME280;48842;51.046;13.796;2023-09-19T10:16:49;99953.00;;;23.54;42.68
62800;BME280;48842;51.046;13.796;2023-09-19T10:19:36;99957.91;;;23.62;42.73
62800;BME280;48842;51.046;13.796;2023-09-19T10:22:02;99962.63;;;23.73;42.84
62800;BME280;48842;51.046;13.796;2023-09-19T10:24:28;99968.31;;;23.82;42.87
62800;BME280;48842;51.046;13.796;2023-09-19T10:26:55;99959.19;;;23.86;42.34
62800;BME280;48842;51.046;13.796;2023-09-19T10:29:21;99956.25;;;23.91;42.67
62800;BME280;48842;51.046;13.796;2023-09-19T10:31:52;99957.03;;;23.93;42.05
62800;BME280;48842;51.046;13.796;2023-09-19T10:34:19;99963.91;;;23.97;41.88
62800;BME280;48842;51.046;13.796;2023-09-19T10:36:45;99965.03;;;23.93;41.24
62800;BME280;48842;51.046;13.796;2023-09-19T10:39:14;99969.72;;;23.90;41.48
62800;BME280;48842;51.046;13.796;2023-09-19T10:41:44;99960.75;;;23.91;41.69
62800;BME280;48842;51.046;13.796;2023-09-19T10:44:13;99969.81;;;23.88;40.82
62800;BME280;48842;51.046;13.796;2023-09-19T10:46:38;99958.00;;;23.92;40.68
62800;BME280;48842;51.046;13.796;2023-09-19T10:49:04;99957.91;;;23.94;40.54
62800;BME280;48842;51.046;13.796;2023-09-19T10:51:40;99959.53;;;23.96;40.75
62800;BME280;48842;51.046;13.796;2023-09-19T10:54:16;99961.84;;;24.02;41.07
62800;BME280;48842;51.046;13.796;2023-09-19T10:56:46;99957.97;;;24.08;40.21
62800;BME280;48842;51.046;13.796;2023-09-19T10:59:18;99956.81;;;24.12;39.68
62800;BME280;48842;51.046;13.796;2023-09-19T11:01:45;99967.34;;;24.15;38.61
62800;BME280;48842;51.046;13.796;2023-09-19T11:04:30;99960.94;;;24.18;38.66
62800;BME280;48842;51.046;13.796;2023-09-19T11:07:06;99965.06;;;24.23;38.61
62800;BME280;48842;51.046;13.796;2023-09-19T11:09:56;99950.38;;;24.31;38.74
62800;BME280;48842;51.046;13.796;2023-09-19T11:26:48;99946.47;;;24.96;36.38
62800;BME280;48842;51.046;13.796;2023-09-19T11:29:32;99953.44;;;25.13;36.09
62800;BME280;48842;51.046;13.796;2023-09-19T11:31:58;99954.28;;;25.27;36.04
62800;BME280;48842;51.046;13.796;2023-09-19T11:37:02;99955.81;;;25.46;35.63
62800;BME280;48842;51.046;13.796;2023-09-19T11:39:30;99947.47;;;25.51;35.45
62800;BME280;48842;51.046;13.796;2023-09-19T11:41:56;99946.63;;;25.50;35.08
62800;BME280;48842;51.046;13.796;2023-09-19T11:49:31;99951.06;;;25.37;34.60
62800;BME280;48842;51.046;13.796;2023-09-19T11:51:58;99958.53;;;25.32;34.74
62800;BME280;48842;51.046;13.796;2023-09-19T11:54:31;99950.47;;;25.32;34.58
62800;BME280;48842;51.046;13.796;2023-09-19T11:56:58;99956.22;;;25.40;34.87
62800;BME280;48842;51.046;13.796;2023-09-19T11:59:25;99942.22;;;25.49;34.81
62800;BME280;48842;51.046;13.796;2023-09-19T12:01:54;99948.81;;;25.58;34.47
62800;BME280;48842;51.046;13.796;2023-09-19T12:04:33;99945.72;;;25.64;34.40
62800;BME280;48842;51.046;13.796;2023-09-19T12:06:59;99951.00;;;25.66;34.35
62800;BME280;48842;51.046;13.796;2023-09-19T12:09:24;99940.66;;;25.59;34.29
62800;BME280;48842;51.046;13.796;2023-09-19T12:11:50;99941.72;;;25.57;34.32
62800;BME280;48842;51.046;13.796;2023-09-19T12:14:23;99938.94;;;25.58;34.65
62800;BME280;48842;51.046;13.796;2023-09-19T12:16:54;99942.97;;;25.66;34.55
62800;BME280;48842;51.046;13.796;2023-09-19T12:19:21;99948.88;;;25.71;34.51
62800;BME280;48842;51.046;13.796;2023-09-19T12:22:00;99945.97;;;25.74;34.63
62800;BME280;48842;51.046;13.796;2023-09-19T12:24:29;99941.38;;;25.76;34.95
62800;BME280;48842;51.046;13.796;2023-09-19T12:27:04;99939.66;;;25.75;35.30
62800;BME280;48842;51.046;13.796;2023-09-19T12:29:31;99949.44;;;25.76;35.45
62800;BME280;48842;51.046;13.796;2023-09-19T12:31:57;99952.28;;;25.73;35.39
62800;BME280;48842;51.046;13.796;2023-09-19T12:34:25;99946.50;;;25.66;35.58
62800;BME280;48842;51.046;13.796;2023-09-19T12:37:09;99947.75;;;25.60;35.76
62800;BME280;48842;51.046;13.796;2023-09-19T12:39:39;99942.19;;;25.64;35.81
62800;BME280;48842;51.046;13.796;2023-09-19T12:42:07;99945.03;;;25.75;36.09
62800;BME280;48842;51.046;13.796;2023-09-19T12:44:35;99945.06;;;25.88;35.92
62800;BME280;48842;51.046;13.796;2023-09-19T12:47:08;99947.03;;;25.99;35.78
62800;BME280;48842;51.046;13.796;2023-09-19T12:49:34;99934.00;;;26.07;35.17
62800;BME280;48842;51.046;13.796;2023-09-19T12:51:59;99944.53;;;26.10;35.25
62800;BME280;48842;51.046;13.796;2023-09-19T12:54:37;99948.63;;;26.16;34.82
62800;BME280;48842;51.046;13.796;2023-09-19T12:57:03;99937.47;;;26.22;34.86
62800;BME280;48842;51.046;13.796;2023-09-19T12:59:30;99938.97;;;26.26;34.37
62800;BME280;48842;51.046;13.796;2023-09-19T13:02:04;99943.28;;;26.28;34.19
62800;BME280;48842;51.046;13.796;2023-09-19T13:04:38;99945.44;;;26.36;34.35
62800;BME280;48842;51.046;13.796;2023-09-19T13:07:06;99943.50;;;26.51;34.06
62800;BME280;48842;51.046;13.796;2023-09-19T13:09:34;99946.31;;;26.62;34.21
62800;BME280;48842;51.046;13.796;2023-09-19T13:11:59;99945.16;;;26.79;34.31
62800;BME280;48842;51.046;13.796;2023-09-19T13:14:27;99936.09;;;27.19;34.02
62800;BME280;48842;51.046;13.796;2023-09-19T13:17:08;99940.94;;;27.88;32.97
62800;BME280;48842;51.046;13.796;2023-09-19T13:19:45;99933.78;;;28.35;31.87
62800;BME280;48842;51.046;13.796;2023-09-19T13:22:39;99936.72;;;28.79;31.75
62800;BME280;48842;51.046;13.796;2023-09-19T13:25:09;99931.31;;;29.47;29.71
62800;BME280;48842;51.046;13.796;2023-09-19T13:27:40;99935.75;;;29.37;29.99
62800;BME280;48842;51.046;13.796;2023-09-19T13:30:06;99929.72;;;29.33;30.54
62800;BME280;48842;51.046;13.796;2023-09-19T13:32:32;99924.56;;;29.53;30.18
62800;BME280;48842;51.046;13.796;2023-09-19T13:34:58;99924.47;;;29.75;29.18
62800;BME280;48842;51.046;13.796;2023-09-19T13:37:23;99933.81;;;29.83;28.98